sensor_id;sensor_type;location;lat;lon;timestamp;temperature;humidity
11934;DHT22;6026;48.784;9.198;2023-01-30T00:01:46;-1.80;99.90
11934;DHT22;6026;48.784;9.198;2023-01-30T00:04:11;-1.80;99.90
11934;DHT22;6026;48.784;9.198;2023-01-30T00:06:41;-1.80;99.90
11934;DHT22;6026;48.784;9.198;2023-01-30T00:09:07;-1.80;99.90
11934;DHT22;6026;48.784;9.198;2023-01-30T00:11:34;-1.90;99.90
11934;DHT22;6026;48.784;9.198;2023-01-30T00:14:00;-1.80;99.90
11934;DHT22;6026;48.784;9.198;2023-01-30T00:16:26;-1.90;99.90
11934;DHT22;6026;48.784;9.198;2023-01-30T00:18:51;-1.90;99.90
11934;DHT22;6026;48.784;9.198;2023-01-30T00:21:17;-1.90;99.90
11934;DHT22;6026;48.784;9.198;2023-01-30T00:23:43;-1.90;99.90
11934;DHT22;6026;48.784;9.198;2023-01-30T00:26:09;-1.90;99.90
11934;DHT22;6026;48.784;9.198;2023-01-30T00:28:37;-1.90;99.90
11934;DHT22;6026;48.784;9.198;2023-01-30T00:31:04;-1.90;99.90
11934;DHT22;6026;48.784;9.198;2023-01-30T00:33:30;-1.90;99.90
11934;DHT22;6026;48.784;9.198;2023-01-30T00:35:56;-1.90;99.90
11934;DHT22;6026;48.784;9.198;2023-01-30T00:38:22;-2.00;99.90
11934;DHT22;6026;48.784;9.198;2023-01-30T00:40:48;-2.00;99.90
11934;DHT22;6026;48.784;9.198;2023-01-30T00:43:17;-1.90;99.90
11934;DHT22;6026;48.784;9.198;2023-01-30T00:46:03;-1.90;99.90
11934;DHT22;6026;48.784;9.198;2023-01-30T00:48:49;-1.90;99.90
11934;DHT22;6026;48.784;9.198;2023-01-30T00:51:14;-1.90;99.90
11934;DHT22;6026;48.784;9.198;2023-01-30T00:53:40;-1.90;99.90
11934;DHT22;6026;48.784;9.198;2023-01-30T00:59:28;-1.90;99.90
11934;DHT22;6026;48.784;9.198;2023-01-30T01:01:54;-2.00;99.90
11934;DHT22;6026;48.784;9.198;2023-01-30T01:04:19;-2.00;99.90
11934;DHT22;6026;48.784;9.198;2023-01-30T01:06:45;-2.00;99.90
11934;DHT22;6026;48.784;9.198;2023-01-30T01:09:11;-2.00;99.90
11934;DHT22;6026;48.784;9.198;2023-01-30T01:11:36;-2.00;99.90
11934;DHT22;6026;48.784;9.198;2023-01-30T01:14:04;-2.00;99.90
11934;DHT22;6026;48.784;9.198;2023-01-30T01:16:30;-2.00;99.90
11934;DHT22;6026;48.784;9.198;2023-01-30T01:18:56;-2.10;99.90
11934;DHT22;6026;48.784;9.198;2023-01-30T01:21:22;-2.10;99.90
11934;DHT22;6026;48.784;9.198;2023-01-30T01:23:53;-2.10;99.90
11934;DHT22;6026;48.784;9.198;2023-01-30T01:26:19;-2.00;99.90
11934;DHT22;6026;48.784;9.198;2023-01-30T01:28:45;-2.00;99.90
11934;DHT22;6026;48.784;9.198;2023-01-30T01:31:12;-2.00;99.90
11934;DHT22;6026;48.784;9.198;2023-01-30T01:33:39;-2.00;99.90
11934;DHT22;6026;48.784;9.198;2023-01-30T01:36:05;-2.10;99.90
11934;DHT22;6026;48.784;9.198;2023-01-30T01:38:31;-2.10;99.90
11934;DHT22;6026;48.784;9.198;2023-01-30T01:40:56;-2.10;99.90
11934;DHT22;6026;48.784;9.198;2023-01-30T01:43:36;-2.10;99.90
11934;DHT22;6026;48.784;9.198;2023-01-30T01:46:21;-2.10;99.90
11934;DHT22;6026;48.784;9.198;2023-01-30T01:48:51;-2.20;99.90
11934;DHT22;6026;48.784;9.198;2023-01-30T01:51:34;-2.10;99.90
11934;DHT22;6026;48.784;9.198;2023-01-30T01:54:07;-2.10;99.90
11934;DHT22;6026;48.784;9.198;2023-01-30T01:56:34;-2.00;99.90
11934;DHT22;6026;48.784;9.198;2023-01-30T01:59:09;-2.00;99.90
11934;DHT22;6026;48.784;9.198;2023-01-30T02:01:37;-2.00;99.90
11934;DHT22;6026;48.784;9.198;2023-01-30T02:04:04;-2.00;99.90
11934;DHT22;6026;48.784;9.198;2023-01-30T02:06:30;-2.00;99.90
11934;DHT22;6026;48.784;9.198;2023-01-30T02:09:04;-1.90;99.90
11934;DHT22;6026;48.784;9.198;2023-01-30T02:11:49;-1.90;99.90
11934;DHT22;6026;48.784;9.198;2023-01-30T02:14:17;-2.00;99.90
11934;DHT22;6026;48.784;9.198;2023-01-30T02:16:45;-2.00;99.90
11934;DHT22;6026;48.784;9.198;2023-01-30T02:19:48;-1.90;99.90
11934;DHT22;6026;48.784;9.198;2023-01-30T02:28:35;-2.00;99.90
11934;DHT22;6026;48.784;9.198;2023-01-30T02:31:15;-2.00;99.90
11934;DHT22;6026;48.784;9.198;2023-01-30T02:36:40;-2.00;99.90
11934;DHT22;6026;48.784;9.198;2023-01-30T02:42:11;-1.90;99.90
11934;DHT22;6026;48.784;9.198;2023-01-30T02:45:00;-1.90;99.90
11934;DHT22;6026;48.784;9.198;2023-01-30T02:47:50;-2.00;99.90
11934;DHT22;6026;48.784;9.198;2023-01-30T02:50:24;-2.00;99.90
11934;DHT22;6026;48.784;9.198;2023-01-30T02:52:50;-2.00;99.90
11934;DHT22;6026;48.784;9.198;2023-01-30T02:55:19;-2.00;99.90
11934;DHT22;6026;48.784;9.198;2023-01-30T02:57:45;-2.00;99.90
11934;DHT22;6026;48.784;9.198;2023-01-30T03:00:12;-2.00;99.90
11934;DHT22;6026;48.784;9.198;2023-01-30T03:05:57;-2.00;99.90
11934;DHT22;6026;48.784;9.198;2023-01-30T03:08:50;-2.10;99.90
11934;DHT22;6026;48.784;9.198;2023-01-30T03:11:23;-2.10;99.90
11934;DHT22;6026;48.784;9.198;2023-01-30T03:14:10;-2.00;99.90
11934;DHT22;6026;48.784;9.198;2023-01-30T03:16:39;-2.00;99.90
11934;DHT22;6026;48.784;9.198;2023-01-30T03:19:09;-2.00;99.90
11934;DHT22;6026;48.784;9.198;2023-01-30T03:21:40;-2.00;99.90
11934;DHT22;6026;48.784;9.198;2023-01-30T03:24:07;-2.00;99.90
11934;DHT22;6026;48.784;9.198;2023-01-30T03:26:34;-1.90;99.90
11934;DHT22;6026;48.784;9.198;2023-01-30T03:29:01;-1.90;99.90
11934;DHT22;6026;48.784;9.198;2023-01-30T03:31:28;-1.90;99.90
11934;DHT22;6026;48.784;9.198;2023-01-30T03:33:53;-1.90;99.90
11934;DHT22;6026;48.784;9.198;2023-01-30T03:36:19;-1.80;99.90
11934;DHT22;6026;48.784;9.198;2023-01-30T03:38:44;-1.60;99.90
11934;DHT22;6026;48.784;9.198;2023-01-30T03:41:10;-1.50;99.90
11934;DHT22;6026;48.784;9.198;2023-01-30T03:43:36;-1.50;99.90
11934;DHT22;6026;48.784;9.198;2023-01-30T03:46:01;-1.40;99.90
11934;DHT22;6026;48.784;9.198;2023-01-30T03:48:27;-1.30;99.90
11934;DHT22;6026;48.784;9.198;2023-01-30T03:50:53;-1.10;99.90
11934;DHT22;6026;48.784;9.198;2023-01-30T03:53:19;-1.00;99.90
11934;DHT22;6026;48.784;9.198;2023-01-30T03:55:44;-0.90;99.90
11934;DHT22;6026;48.784;9.198;2023-01-30T03:58:10;-0.80;99.90
11934;DHT22;6026;48.784;9.198;2023-01-30T04:00:35;-0.80;99.90
11934;DHT22;6026;48.784;9.198;2023-01-30T04:03:01;-0.90;99.90
11934;DHT22;6026;48.784;9.198;2023-01-30T04:05:27;-0.90;99.90
11934;DHT22;6026;48.784;9.198;2023-01-30T04:07:55;-0.90;99.90
11934;DHT22;6026;48.784;9.198;2023-01-30T04:10:21;-0.90;99.90
11934;DHT22;6026;48.784;9.198;2023-01-30T04:12:47;-0.80;99.90
11934;DHT22;6026;48.784;9.198;2023-01-30T04:15:13;-0.80;99.90
11934;DHT22;6026;48.784;9.198;2023-01-30T04:17:39;-0.80;99.90
11934;DHT22;6026;48.784;9.198;2023-01-30T04:20:05;-0.80;99.90
11934;DHT22;6026;48.784;9.198;2023-01-30T04:22:30;-0.70;99.90
11934;DHT22;6026;48.784;9.198;2023-01-30T04:24:56;-0.70;99.90
11934;DHT22;6026;48.784;9.198;2023-01-30T04:27:21;-0.70;99.90
11934;DHT22;6026;48.784;9.198;2023-01-30T04:29:47;-0.70;99.90
11934;DHT22;6026;48.784;9.198;2023-01-30T04:32:12;-0.70;99.90
11934;DHT22;6026;48.784;9.198;2023-01-30T04:34:38;-0.70;99.90
11934;DHT22;6026;48.784;9.198;2023-01-30T04:37:04;-0.60;99.90
11934;DHT22;6026;48.784;9.198;2023-01-30T04:39:29;-0.60;99.90
11934;DHT22;6026;48.784;9.198;2023-01-30T04:41:55;-0.60;99.90
11934;DHT22;6026;48.784;9.198;2023-01-30T04:44:20;-0.50;99.90
11934;DHT22;6026;48.784;9.198;2023-01-30T04:46:46;-0.50;99.90
11934;DHT22;6026;48.784;9.198;2023-01-30T04:49:11;-0.40;99.90
11934;DHT22;6026;48.784;9.198;2023-01-30T04:51:37;-0.30;99.90
11934;DHT22;6026;48.784;9.198;2023-01-30T04:54:03;-0.30;99.90
11934;DHT22;6026;48.784;9.198;2023-01-30T04:56:29;-0.30;99.90
11934;DHT22;6026;48.784;9.198;2023-01-30T04:58:54;-0.20;99.90
11934;DHT22;6026;48.784;9.198;2023-01-30T05:01:29;-0.20;99.90
11934;DHT22;6026;48.784;9.198;2023-01-30T05:03:55;-0.20;99.90
11934;DHT22;6026;48.784;9.198;2023-01-30T05:06:21;-0.20;99.90
11934;DHT22;6026;48.784;9.198;2023-01-30T05:08:51;-0.10;99.90
11934;DHT22;6026;48.784;9.198;2023-01-30T05:11:18;-0.10;99.90
11934;DHT22;6026;48.784;9.198;2023-01-30T05:13:44;-0.10;99.90
11934;DHT22;6026;48.784;9.198;2023-01-30T05:16:10;-0.10;99.90
11934;DHT22;6026;48.784;9.198;2023-01-30T05:18:36;0.00;99.90
11934;DHT22;6026;48.784;9.198;2023-01-30T05:21:07;-0.10;99.90
11934;DHT22;6026;48.784;9.198;2023-01-30T05:23:33;0.00;99.90
11934;DHT22;6026;48.784;9.198;2023-01-30T05:25:59;0.00;99.90
11934;DHT22;6026;48.784;9.198;2023-01-30T05:28:25;0.00;99.90
11934;DHT22;6026;48.784;9.198;2023-01-30T05:30:51;0.00;99.90
11934;DHT22;6026;48.784;9.198;2023-01-30T05:33:16;0.00;99.90
11934;DHT22;6026;48.784;9.198;2023-01-30T05:35:49;0.10;99.90
11934;DHT22;6026;48.784;9.198;2023-01-30T05:38:15;0.00;99.90
11934;DHT22;6026;48.784;9.198;2023-01-30T05:40:40;0.00;99.90
11934;DHT22;6026;48.784;9.198;2023-01-30T05:43:06;0.00;99.90
11934;DHT22;6026;48.784;9.198;2023-01-30T05:45:34;0.00;99.90
11934;DHT22;6026;48.784;9.198;2023-01-30T05:47:59;0.10;99.90
11934;DHT22;6026;48.784;9.198;2023-01-30T05:50:25;0.10;99.90
11934;DHT22;6026;48.784;9.198;2023-01-30T05:52:50;0.10;99.90
11934;DHT22;6026;48.784;9.198;2023-01-30T05:55:16;0.10;99.90
11934;DHT22;6026;48.784;9.198;2023-01-30T05:57:42;0.10;99.90
11934;DHT22;6026;48.784;9.198;2023-01-30T06:00:08;0.10;99.90
11934;DHT22;6026;48.784;9.198;2023-01-30T06:02:35;0.10;99.90
11934;DHT22;6026;48.784;9.198;2023-01-30T06:05:00;0.10;99.90
11934;DHT22;6026;48.784;9.198;2023-01-30T06:07:26;0.10;99.90
11934;DHT22;6026;48.784;9.198;2023-01-30T06:09:51;0.10;99.90
11934;DHT22;6026;48.784;9.198;2023-01-30T06:12:17;0.20;99.90
11934;DHT22;6026;48.784;9.198;2023-01-30T06:14:42;0.20;99.90
11934;DHT22;6026;48.784;9.198;2023-01-30T06:17:08;0.20;99.90
11934;DHT22;6026;48.784;9.198;2023-01-30T06:19:33;0.20;99.90
11934;DHT22;6026;48.784;9.198;2023-01-30T06:21:59;0.20;99.90
11934;DHT22;6026;48.784;9.198;2023-01-30T06:24:25;0.20;99.90
11934;DHT22;6026;48.784;9.198;2023-01-30T06:26:50;0.20;99.90
11934;DHT22;6026;48.784;9.198;2023-01-30T06:29:16;0.20;99.90
11934;DHT22;6026;48.784;9.198;2023-01-30T06:31:41;0.10;99.90
11934;DHT22;6026;48.784;9.198;2023-01-30T06:34:07;0.10;99.90
11934;DHT22;6026;48.784;9.198;2023-01-30T06:36:33;0.10;99.90
11934;DHT22;6026;48.784;9.198;2023-01-30T06:38:59;0.00;99.90
11934;DHT22;6026;48.784;9.198;2023-01-30T06:41:24;0.10;99.90
11934;DHT22;6026;48.784;9.198;2023-01-30T06:43:50;0.10;99.90
11934;DHT22;6026;48.784;9.198;2023-01-30T06:46:15;0.10;99.90
11934;DHT22;6026;48.784;9.198;2023-01-30T06:48:41;0.10;99.90
11934;DHT22;6026;48.784;9.198;2023-01-30T06:51:06;0.20;99.90
11934;DHT22;6026;48.784;9.198;2023-01-30T06:53:32;0.20;99.90
11934;DHT22;6026;48.784;9.198;2023-01-30T06:55:58;0.20;99.90
11934;DHT22;6026;48.784;9.198;2023-01-30T06:58:24;0.20;99.90
11934;DHT22;6026;48.784;9.198;2023-01-30T07:00:50;0.20;99.90
11934;DHT22;6026;48.784;9.198;2023-01-30T07:03:17;0.30;99.90
11934;DHT22;6026;48.784;9.198;2023-01-30T07:05:44;0.30;99.90
11934;DHT22;6026;48.784;9.198;2023-01-30T07:08:10;0.20;99.90
11934;DHT22;6026;48.784;9.198;2023-01-30T07:10:36;0.20;99.90
11934;DHT22;6026;48.784;9.198;2023-01-30T07:13:03;0.30;99.90
11934;DHT22;6026;48.784;9.198;2023-01-30T07:15:29;0.30;99.90
11934;DHT22;6026;48.784;9.198;2023-01-30T07:17:54;0.30;99.90
11934;DHT22;6026;48.784;9.198;2023-01-30T07:20:20;0.30;99.90
11934;DHT22;6026;48.784;9.198;2023-01-30T07:22:53;0.40;99.90
11934;DHT22;6026;48.784;9.198;2023-01-30T07:25:21;0.40;99.90
11934;DHT22;6026;48.784;9.198;2023-01-30T07:28:00;0.40;99.90
11934;DHT22;6026;48.784;9.198;2023-01-30T07:30:27;0.40;99.90
11934;DHT22;6026;48.784;9.198;2023-01-30T07:32:55;0.50;99.90
11934;DHT22;6026;48.784;9.198;2023-01-30T07:35:23;0.50;99.90
11934;DHT22;6026;48.784;9.198;2023-01-30T07:37:49;0.50;99.90
11934;DHT22;6026;48.784;9.198;2023-01-30T07:40:16;0.50;99.90
11934;DHT22;6026;48.784;9.198;2023-01-30T07:42:42;0.60;99.90
11934;DHT22;6026;48.784;9.198;2023-01-30T07:45:08;0.60;99.90
11934;DHT22;6026;48.784;9.198;2023-01-30T07:47:34;0.60;99.90
11934;DHT22;6026;48.784;9.198;2023-01-30T07:49:59;0.60;99.90
11934;DHT22;6026;48.784;9.198;2023-01-30T07:52:25;0.70;99.90
11934;DHT22;6026;48.784;9.198;2023-01-30T07:54:50;0.80;99.90
11934;DHT22;6026;48.784;9.198;2023-01-30T07:57:16;0.80;99.90
11934;DHT22;6026;48.784;9.198;2023-01-30T07:59:41;0.90;99.90
11934;DHT22;6026;48.784;9.198;2023-01-30T08:02:12;0.90;99.90
11934;DHT22;6026;48.784;9.198;2023-01-30T08:04:37;0.90;99.90
11934;DHT22;6026;48.784;9.198;2023-01-30T08:07:03;0.90;99.90
11934;DHT22;6026;48.784;9.198;2023-01-30T08:09:28;0.90;99.90
11934;DHT22;6026;48.784;9.198;2023-01-30T08:11:54;0.90;99.90
11934;DHT22;6026;48.784;9.198;2023-01-30T08:14:20;1.00;99.90
11934;DHT22;6026;48.784;9.198;2023-01-30T08:16:45;1.00;99.90
11934;DHT22;6026;48.784;9.198;2023-01-30T08:19:11;1.00;99.90
11934;DHT22;6026;48.784;9.198;2023-01-30T08:21:36;1.00;99.90
11934;DHT22;6026;48.784;9.198;2023-01-30T08:24:02;1.10;99.90
11934;DHT22;6026;48.784;9.198;2023-01-30T08:26:28;1.00;99.90
11934;DHT22;6026;48.784;9.198;2023-01-30T08:28:53;1.00;99.90
11934;DHT22;6026;48.784;9.198;2023-01-30T08:31:20;1.00;99.90
11934;DHT22;6026;48.784;9.198;2023-01-30T08:33:47;1.00;99.90
11934;DHT22;6026;48.784;9.198;2023-01-30T08:36:12;1.10;99.90
11934;DHT22;6026;48.784;9.198;2023-01-30T08:38:38;1.10;99.90
11934;DHT22;6026;48.784;9.198;2023-01-30T08:41:04;1.20;99.90
11934;DHT22;6026;48.784;9.198;2023-01-30T08:43:31;1.20;99.90
11934;DHT22;6026;48.784;9.198;2023-01-30T08:45:56;1.50;99.90
11934;DHT22;6026;48.784;9.198;2023-01-30T08:48:22;1.70;99.90
11934;DHT22;6026;48.784;9.198;2023-01-30T08:50:52;2.00;99.90
11934;DHT22;6026;48.784;9.198;2023-01-30T08:53:18;1.90;99.90
11934;DHT22;6026;48.784;9.198;2023-01-30T08:55:44;1.90;99.90
11934;DHT22;6026;48.784;9.198;2023-01-30T08:58:10;1.90;99.90
11934;DHT22;6026;48.784;9.198;2023-01-30T09:00:35;2.10;99.90
11934;DHT22;6026;48.784;9.198;2023-01-30T09:03:01;2.20;99.90
11934;DHT22;6026;48.784;9.198;2023-01-30T09:05:27;2.20;99.90
11934;DHT22;6026;48.784;9.198;2023-01-30T09:07:54;2.30;99.90
11934;DHT22;6026;48.784;9.198;2023-01-30T09:10:19;2.30;99.90
11934;DHT22;6026;48.784;9.198;2023-01-30T09:12:46;2.30;99.90
11934;DHT22;6026;48.784;9.198;2023-01-30T09:15:12;2.90;99.90
11934;DHT22;6026;48.784;9.198;2023-01-30T09:17:38;4.10;99.90
11934;DHT22;6026;48.784;9.198;2023-01-30T09:20:08;4.40;99.90
11934;DHT22;6026;48.784;9.198;2023-01-30T09:22:33;4.10;99.90
11934;DHT22;6026;48.784;9.198;2023-01-30T09:24:59;3.60;99.90
11934;DHT22;6026;48.784;9.198;2023-01-30T09:27:25;3.30;99.90
11934;DHT22;6026;48.784;9.198;2023-01-30T09:29:50;3.20;99.90
11934;DHT22;6026;48.784;9.198;2023-01-30T09:32:16;3.00;99.90
11934;DHT22;6026;48.784;9.198;2023-01-30T09:34:41;2.70;99.90
11934;DHT22;6026;48.784;9.198;2023-01-30T09:37:07;2.60;99.90
11934;DHT22;6026;48.784;9.198;2023-01-30T09:39:32;2.50;99.90
11934;DHT22;6026;48.784;9.198;2023-01-30T09:53:24;2.50;99.90
11934;DHT22;6026;48.784;9.198;2023-01-30T09:55:57;2.60;99.90
11934;DHT22;6026;48.784;9.198;2023-01-30T09:58:24;2.70;99.90
11934;DHT22;6026;48.784;9.198;2023-01-30T10:00:55;2.70;99.90
11934;DHT22;6026;48.784;9.198;2023-01-30T10:03:31;2.80;99.90
11934;DHT22;6026;48.784;9.198;2023-01-30T10:05:59;2.80;99.90
11934;DHT22;6026;48.784;9.198;2023-01-30T10:26:04;3.40;99.90
11934;DHT22;6026;48.784;9.198;2023-01-30T10:28:28;3.40;99.90
11934;DHT22;6026;48.784;9.198;2023-01-30T10:31:03;3.50;99.90
11934;DHT22;6026;48.784;9.198;2023-01-30T10:33:34;3.50;99.90
11934;DHT22;6026;48.784;9.198;2023-01-30T10:36:06;3.50;99.90
11934;DHT22;6026;48.784;9.198;2023-01-30T10:38:54;3.60;99.90
11934;DHT22;6026;48.784;9.198;2023-01-30T10:41:33;3.60;99.90
11934;DHT22;6026;48.784;9.198;2023-01-30T10:44:12;3.60;99.90
11934;DHT22;6026;48.784;9.198;2023-01-30T10:47:00;3.60;99.90
11934;DHT22;6026;48.784;9.198;2023-01-30T10:49:48;3.60;99.90
11934;DHT22;6026;48.784;9.198;2023-01-30T10:52:26;3.60;99.90
11934;DHT22;6026;48.784;9.198;2023-01-30T10:55:02;3.60;99.90
11934;DHT22;6026;48.784;9.198;2023-01-30T10:57:52;3.60;99.90
11934;DHT22;6026;48.784;9.198;2023-01-30T11:00:48;3.70;99.90
11934;DHT22;6026;48.784;9.198;2023-01-30T11:05:49;3.70;99.90
11934;DHT22;6026;48.784;9.198;2023-01-30T11:08:26;3.70;99.90
11934;DHT22;6026;48.784;9.198;2023-01-30T11:10:52;3.70;99.90
11934;DHT22;6026;48.784;9.198;2023-01-30T11:13:21;3.70;99.90
11934;DHT22;6026;48.784;9.198;2023-01-30T11:15:50;3.70;99.90
11934;DHT22;6026;48.784;9.198;2023-01-30T11:18:18;3.70;99.90
11934;DHT22;6026;48.784;9.198;2023-01-30T11:20:45;3.70;99.90
11934;DHT22;6026;48.784;9.198;2023-01-30T11:23:23;3.70;99.90
11934;DHT22;6026;48.784;9.198;2023-01-30T11:25:52;3.60;99.90
11934;DHT22;6026;48.784;9.198;2023-01-30T11:28:18;3.60;99.90
11934;DHT22;6026;48.784;9.198;2023-01-30T11:30:56;3.60;99.90
11934;DHT22;6026;48.784;9.198;2023-01-30T11:33:33;3.60;99.90
11934;DHT22;6026;48.784;9.198;2023-01-30T11:36:02;3.60;99.90
11934;DHT22;6026;48.784;9.198;2023-01-30T11:38:31;3.80;99.90
11934;DHT22;6026;48.784;9.198;2023-01-30T11:41:04;3.60;99.90
11934;DHT22;6026;48.784;9.198;2023-01-30T11:43:32;3.50;99.90
11934;DHT22;6026;48.784;9.198;2023-01-30T11:45:58;3.30;99.90
11934;DHT22;6026;48.784;9.198;2023-01-30T11:48:30;3.10;99.90
11934;DHT22;6026;48.784;9.198;2023-01-30T11:51:03;3.00;99.90
11934;DHT22;6026;48.784;9.198;2023-01-30T11:55:58;2.90;99.90
11934;DHT22;6026;48.784;9.198;2023-01-30T11:58:24;2.80;99.90
11934;DHT22;6026;48.784;9.198;2023-01-30T12:00:53;2.80;99.90
11934;DHT22;6026;48.784;9.198;2023-01-30T12:03:22;2.70;99.90
11934;DHT22;6026;48.784;9.198;2023-01-30T12:05:49;2.70;99.90
11934;DHT22;6026;48.784;9.198;2023-01-30T12:10:46;2.60;99.90
11934;DHT22;6026;48.784;9.198;2023-01-30T12:18:55;2.60;99.90
11934;DHT22;6026;48.784;9.198;2023-01-30T12:23:58;2.60;99.90
11934;DHT22;6026;48.784;9.198;2023-01-30T12:26:34;2.50;99.90
11934;DHT22;6026;48.784;9.198;2023-01-30T12:29:33;2.50;99.90
11934;DHT22;6026;48.784;9.198;2023-01-30T12:32:17;2.50;99.90
11934;DHT22;6026;48.784;9.198;2023-01-30T12:34:44;2.50;99.90
11934;DHT22;6026;48.784;9.198;2023-01-30T12:43:22;2.50;99.90
11934;DHT22;6026;48.784;9.198;2023-01-30T12:46:43;2.50;99.90
11934;DHT22;6026;48.784;9.198;2023-01-30T12:52:23;2.50;99.90
11934;DHT22;6026;48.784;9.198;2023-01-30T12:57:40;2.50;99.90
11934;DHT22;6026;48.784;9.198;2023-01-30T13:00:30;2.50;99.90
11934;DHT22;6026;48.784;9.198;2023-01-30T13:03:22;2.50;99.90
11934;DHT22;6026;48.784;9.198;2023-01-30T13:11:44;2.50;99.90
11934;DHT22;6026;48.784;9.198;2023-01-30T13:16:56;2.40;99.90
11934;DHT22;6026;48.784;9.198;2023-01-30T13:22:14;2.50;99.90
11934;DHT22;6026;48.784;9.198;2023-01-30T13:25:07;2.50;99.90
11934;DHT22;6026;48.784;9.198;2023-01-30T13:27:44;2.60;99.90
11934;DHT22;6026;48.784;9.198;2023-01-30T13:30:14;2.60;99.90
11934;DHT22;6026;48.784;9.198;2023-01-30T13:32:48;2.60;99.90
11934;DHT22;6026;48.784;9.198;2023-01-30T13:35:19;2.70;99.90
11934;DHT22;6026;48.784;9.198;2023-01-30T13:37:46;2.70;99.90
11934;DHT22;6026;48.784;9.198;2023-01-30T13:40:24;2.70;99.90
11934;DHT22;6026;48.784;9.198;2023-01-30T13:43:14;2.80;99.90
11934;DHT22;6026;48.784;9.198;2023-01-30T13:45:44;2.80;99.90
11934;DHT22;6026;48.784;9.198;2023-01-30T13:53:40;2.90;99.90
11934;DHT22;6026;48.784;9.198;2023-01-30T14:09:45;3.30;99.90
11934;DHT22;6026;48.784;9.198;2023-01-30T14:12:24;3.40;99.90
11934;DHT22;6026;48.784;9.198;2023-01-30T14:15:03;3.50;99.90
11934;DHT22;6026;48.784;9.198;2023-01-30T14:17:30;3.60;99.90
11934;DHT22;6026;48.784;9.198;2023-01-30T14:20:18;3.60;99.90
11934;DHT22;6026;48.784;9.198;2023-01-30T14:22:55;3.70;99.90
11934;DHT22;6026;48.784;9.198;2023-01-30T14:27:53;3.80;99.90
11934;DHT22;6026;48.784;9.198;2023-01-30T14:33:10;3.90;99.90
11934;DHT22;6026;48.784;9.198;2023-01-30T14:38:33;3.90;99.90
11934;DHT22;6026;48.784;9.198;2023-01-30T14:43:25;3.90;99.90
11934;DHT22;6026;48.784;9.198;2023-01-30T14:45:59;4.10;99.90
11934;DHT22;6026;48.784;9.198;2023-01-30T14:59:34;4.00;99.90
11934;DHT22;6026;48.784;9.198;2023-01-30T15:02:18;3.90;99.90
11934;DHT22;6026;48.784;9.198;2023-01-30T15:08:31;3.80;99.90
11934;DHT22;6026;48.784;9.198;2023-01-30T15:16:06;3.80;99.90
11934;DHT22;6026;48.784;9.198;2023-01-30T15:19:03;3.80;99.90
11934;DHT22;6026;48.784;9.198;2023-01-30T15:21:47;3.70;99.90
11934;DHT22;6026;48.784;9.198;2023-01-30T15:26:54;3.70;99.90
11934;DHT22;6026;48.784;9.198;2023-01-30T15:32:29;3.70;99.90
11934;DHT22;6026;48.784;9.198;2023-01-30T15:37:54;3.70;99.90
11934;DHT22;6026;48.784;9.198;2023-01-30T15:48:29;3.70;99.90
11934;DHT22;6026;48.784;9.198;2023-01-30T15:50:59;3.60;99.90
11934;DHT22;6026;48.784;9.198;2023-01-30T15:53:38;3.70;99.90
11934;DHT22;6026;48.784;9.198;2023-01-30T15:56:07;3.70;99.90
11934;DHT22;6026;48.784;9.198;2023-01-30T15:58:37;3.70;99.90
11934;DHT22;6026;48.784;9.198;2023-01-30T16:01:04;3.60;99.90
11934;DHT22;6026;48.784;9.198;2023-01-30T16:03:32;3.60;99.90
11934;DHT22;6026;48.784;9.198;2023-01-30T16:06:01;3.60;99.90
11934;DHT22;6026;48.784;9.198;2023-01-30T16:08:33;3.60;99.90
11934;DHT22;6026;48.784;9.198;2023-01-30T16:10:59;3.60;99.90
11934;DHT22;6026;48.784;9.198;2023-01-30T16:13:26;3.50;99.90
11934;DHT22;6026;48.784;9.198;2023-01-30T16:15:58;3.50;99.90
11934;DHT22;6026;48.784;9.198;2023-01-30T16:21:05;3.50;99.90
11934;DHT22;6026;48.784;9.198;2023-01-30T16:23:38;3.40;99.90
11934;DHT22;6026;48.784;9.198;2023-01-30T16:26:08;3.40;99.90
11934;DHT22;6026;48.784;9.198;2023-01-30T16:28:36;3.40;99.90
11934;DHT22;6026;48.784;9.198;2023-01-30T16:31:04;3.40;99.90
11934;DHT22;6026;48.784;9.198;2023-01-30T16:33:31;3.50;99.90
11934;DHT22;6026;48.784;9.198;2023-01-30T16:36:27;3.50;99.90
11934;DHT22;6026;48.784;9.198;2023-01-30T16:38:53;3.40;99.90
11934;DHT22;6026;48.784;9.198;2023-01-30T16:41:33;3.40;99.90
11934;DHT22;6026;48.784;9.198;2023-01-30T16:44:22;3.40;99.90
11934;DHT22;6026;48.784;9.198;2023-01-30T16:47:04;3.40;99.90
11934;DHT22;6026;48.784;9.198;2023-01-30T16:49:38;3.50;99.90
11934;DHT22;6026;48.784;9.198;2023-01-30T16:52:12;3.40;99.90
11934;DHT22;6026;48.784;9.198;2023-01-30T16:54:53;3.40;99.90
11934;DHT22;6026;48.784;9.198;2023-01-30T16:59:56;3.40;99.90
11934;DHT22;6026;48.784;9.198;2023-01-30T17:02:29;3.40;99.90
11934;DHT22;6026;48.784;9.198;2023-01-30T17:05:14;3.40;99.90
11934;DHT22;6026;48.784;9.198;2023-01-30T17:07:40;3.40;99.90
11934;DHT22;6026;48.784;9.198;2023-01-30T17:12:51;3.30;99.90
11934;DHT22;6026;48.784;9.198;2023-01-30T17:17:43;3.30;99.90
11934;DHT22;6026;48.784;9.198;2023-01-30T17:20:10;3.30;99.90
11934;DHT22;6026;48.784;9.198;2023-01-30T17:22:37;3.20;99.90
11934;DHT22;6026;48.784;9.198;2023-01-30T17:25:06;3.20;99.90
11934;DHT22;6026;48.784;9.198;2023-01-30T17:27:38;3.30;99.90
11934;DHT22;6026;48.784;9.198;2023-01-30T17:30:14;3.20;99.90
11934;DHT22;6026;48.784;9.198;2023-01-30T17:32:40;3.20;99.90
11934;DHT22;6026;48.784;9.198;2023-01-30T17:35:06;3.20;99.90
11934;DHT22;6026;48.784;9.198;2023-01-30T17:37:32;3.20;99.90
11934;DHT22;6026;48.784;9.198;2023-01-30T17:39:58;3.20;99.90
11934;DHT22;6026;48.784;9.198;2023-01-30T17:42:24;3.20;99.90
11934;DHT22;6026;48.784;9.198;2023-01-30T17:44:50;3.20;99.90
11934;DHT22;6026;48.784;9.198;2023-01-30T17:47:15;3.20;99.90
11934;DHT22;6026;48.784;9.198;2023-01-30T17:49:41;3.20;99.90
11934;DHT22;6026;48.784;9.198;2023-01-30T17:52:07;3.20;99.90
11934;DHT22;6026;48.784;9.198;2023-01-30T17:54:33;3.20;99.90
11934;DHT22;6026;48.784;9.198;2023-01-30T17:57:01;3.10;99.90
11934;DHT22;6026;48.784;9.198;2023-01-30T17:59:27;3.10;99.90
11934;DHT22;6026;48.784;9.198;2023-01-30T18:01:52;3.10;99.90
11934;DHT22;6026;48.784;9.198;2023-01-30T18:04:19;3.10;99.90
11934;DHT22;6026;48.784;9.198;2023-01-30T18:07:14;3.10;99.90
11934;DHT22;6026;48.784;9.198;2023-01-30T18:09:41;3.10;99.90
11934;DHT22;6026;48.784;9.198;2023-01-30T18:12:07;3.00;99.90
11934;DHT22;6026;48.784;9.198;2023-01-30T18:14:32;3.00;99.90
11934;DHT22;6026;48.784;9.198;2023-01-30T18:16:58;3.00;99.90
11934;DHT22;6026;48.784;9.198;2023-01-30T18:19:26;3.00;99.90
11934;DHT22;6026;48.784;9.198;2023-01-30T18:21:52;3.00;99.90
11934;DHT22;6026;48.784;9.198;2023-01-30T18:24:18;3.10;99.90
11934;DHT22;6026;48.784;9.198;2023-01-30T18:26:45;3.10;99.90
11934;DHT22;6026;48.784;9.198;2023-01-30T18:29:13;3.10;99.90
11934;DHT22;6026;48.784;9.198;2023-01-30T18:31:56;3.10;99.90
11934;DHT22;6026;48.784;9.198;2023-01-30T18:34:21;3.10;99.90
11934;DHT22;6026;48.784;9.198;2023-01-30T18:36:53;3.10;99.90
11934;DHT22;6026;48.784;9.198;2023-01-30T18:39:21;3.10;99.90
11934;DHT22;6026;48.784;9.198;2023-01-30T18:41:46;3.10;99.90
11934;DHT22;6026;48.784;9.198;2023-01-30T18:44:12;3.10;99.90
11934;DHT22;6026;48.784;9.198;2023-01-30T18:46:37;3.10;99.90
11934;DHT22;6026;48.784;9.198;2023-01-30T18:49:03;3.10;99.90
11934;DHT22;6026;48.784;9.198;2023-01-30T18:51:31;3.10;99.90
11934;DHT22;6026;48.784;9.198;2023-01-30T18:53:57;3.10;99.90
11934;DHT22;6026;48.784;9.198;2023-01-30T18:56:28;3.20;99.90